Time;durP1;ratioP1;P1;durP2;ratioP2;P2;SDS_P1;SDS_P2;PMS_P1;PMS_P2;Temp;Humidity;BMP_temperature;BMP_pressure;BME280_temperature;BME280_humidity;BME280_pressure;Samples;Min_cycle;Max_cycle;Signal;HPM_P1;HPM_P2
2022/03/06 00:02:22;;;;;;;11.70;6.40;;;;;;;2.33;88.77;101571.91;5254954;28;20154;-78
2022/03/06 00:04:53;;;;;;;13.15;5.68;;;;;;;2.38;89.22;101568.56;5253985;28;20024;-79
2022/03/06 00:07:23;;;;;;;14.32;6.20;;;;;;;2.29;89.11;101583.91;5252048;28;20484;-78
2022/03/06 00:09:54;;;;;;;11.65;5.78;;;;;;;2.21;90.02;101584.63;5247682;28;20107;-79
2022/03/06 00:12:24;;;;;;;10.63;5.40;;;;;;;2.15;89.57;101594.88;5256042;28;20389;-79
2022/03/06 00:14:54;;;;;;;10.07;5.50;;;;;;;2.12;89.60;101589.66;5252467;28;20188;-79
2022/03/06 00:17:24;;;;;;;11.23;5.55;;;;;;;2.14;89.71;101578.53;5257087;28;20142;-80
2022/03/06 00:19:55;;;;;;;12.77;6.10;;;;;;;2.13;89.93;101581.09;5255417;28;20039;-80
2022/03/06 00:22:25;;;;;;;11.45;6.05;;;;;;;2.10;90.17;101587.06;5250535;28;20025;-79
2022/03/06 00:24:57;;;;;;;14.00;5.53;;;;;;;2.02;90.26;101586.06;5255953;28;20028;-79
2022/03/06 00:27:28;;;;;;;13.60;5.93;;;;;;;1.95;91.11;101586.84;5252502;28;20052;-82
2022/03/06 00:29:58;;;;;;;9.07;5.07;;;;;;;1.99;91.49;101587.75;5246012;28;20113;-78
2022/03/06 00:32:28;;;;;;;10.15;6.15;;;;;;;2.00;90.45;101585.19;5251742;28;20024;-80
2022/03/06 00:34:58;;;;;;;11.45;5.65;;;;;;;2.03;91.25;101579.22;5254398;28;20110;-79
2022/03/06 00:37:29;;;;;;;10.77;5.65;;;;;;;2.01;90.52;101597.22;5252591;28;20024;-80
2022/03/06 00:39:59;;;;;;;11.43;5.57;;;;;;;2.16;90.00;101592.28;5254229;28;20500;-79
2022/03/06 00:42:29;;;;;;;11.68;5.60;;;;;;;2.19;90.21;101597.50;5252067;28;20024;-79
2022/03/06 00:45:00;;;;;;;9.48;5.63;;;;;;;2.16;89.92;101600.03;5245404;28;20024;-78
2022/03/06 00:47:30;;;;;;;9.57;5.45;;;;;;;2.05;90.11;101601.59;5250133;28;20032;-79
2022/03/06 00:50:02;;;;;;;12.90;6.35;;;;;;;2.08;89.87;101608.50;5254103;28;20020;-79
2022/03/06 00:52:32;;;;;;;12.88;5.53;;;;;;;2.04;89.73;101602.44;5250912;28;20474;-77
2022/03/06 00:55:03;;;;;;;9.00;5.50;;;;;;;2.09;89.69;101602.50;5254621;28;20035;-79
2022/03/06 00:57:33;;;;;;;9.10;5.15;;;;;;;2.04;89.74;101604.16;5252688;28;20027;-79
2022/03/06 01:00:06;;;;;;;10.63;5.55;;;;;;;1.97;90.41;101605.75;5252788;28;20048;-79
2022/03/06 01:02:36;;;;;;;11.80;5.63;;;;;;;2.05;90.13;101600.72;5252017;28;20206;-79
2022/03/06 01:05:07;;;;;;;10.60;5.85;;;;;;;2.04;89.97;101606.72;5245814;28;20027;-80
2022/03/06 01:07:38;;;;;;;11.80;5.70;;;;;;;1.93;91.34;101613.41;5242806;28;20025;-80
2022/03/06 01:10:10;;;;;;;12.27;5.50;;;;;;;1.87;92.54;101608.16;5249811;28;20027;-79
2022/03/06 01:12:40;;;;;;;10.60;5.57;;;;;;;1.96;90.85;101608.34;5254281;28;20016;-80
2022/03/06 01:15:10;;;;;;;11.18;4.95;;;;;;;2.07;89.68;101611.91;5241858;28;20428;-79
2022/03/06 01:17:40;;;;;;;9.43;5.13;;;;;;;1.98;90.42;101616.94;5233762;28;20035;-81
2022/03/06 01:20:11;;;;;;;9.82;5.03;;;;;;;2.00;90.30;101615.25;5244161;28;20493;-80
2022/03/06 01:22:41;;;;;;;10.20;5.00;;;;;;;2.01;90.09;101623.00;5242388;28;20028;-80
2022/03/06 01:25:12;;;;;;;11.02;5.38;;;;;;;2.06;89.85;101621.38;5249216;28;20024;-79
2022/03/06 01:27:43;;;;;;;12.48;5.70;;;;;;;2.01;89.69;101614.41;5252982;28;20081;-80
2022/03/06 01:30:21;;;;;;;9.98;5.30;;;;;;;1.99;89.82;101609.22;5256738;28;20105;-79
2022/03/06 01:32:52;;;;;;;10.57;5.13;;;;;;;1.91;90.30;101613.41;5251290;28;20027;-78
2022/03/06 01:35:22;;;;;;;9.75;5.75;;;;;;;1.90;90.24;101623.69;5254099;28;20032;-78
2022/03/06 01:37:52;;;;;;;9.82;5.25;;;;;;;1.92;90.40;101622.00;5253313;28;20396;-78
2022/03/06 01:40:23;;;;;;;10.38;5.57;;;;;;;1.98;89.67;101619.53;5255770;28;20504;-78
2022/03/06 01:42:53;;;;;;;10.80;5.32;;;;;;;1.95;90.56;101617.75;5251134;28;20028;-81
2022/03/06 01:45:24;;;;;;;10.50;5.50;;;;;;;1.93;90.91;101618.56;5240362;28;20039;-81
2022/03/06 01:47:55;;;;;;;10.07;5.70;;;;;;;2.05;89.83;101619.66;5243458;28;20028;-79
2022/03/06 01:50:32;;;;;;;10.32;5.53;;;;;;;2.16;89.14;101623.22;5254952;28;20411;-81
2022/03/06 01:53:08;;;;;;;11.38;5.38;;;;;;;1.84;90.98;101632.16;5253986;28;20020;-79
2022/03/06 01:55:39;;;;;;;10.45;5.13;;;;;;;1.82;91.81;101631.28;5253123;28;20031;-79
2022/03/06 01:58:11;;;;;;;10.30;5.25;;;;;;;1.77;92.12;101629.47;5255154;28;20075;-80
2022/03/06 02:00:44;;;;;;;10.57;5.57;;;;;;;1.70;91.97;101619.91;5245915;28;20292;-80
2022/03/06 02:03:17;;;;;;;9.00;5.32;;;;;;;1.65;92.76;101621.56;5249909;28;20052;-80
2022/03/06 02:05:48;;;;;;;13.07;5.80;;;;;;;1.64;92.70;101624.09;5242829;28;20533;-79
2022/03/06 02:08:18;;;;;;;9.90;5.50;;;;;;;1.58;93.58;101618.84;5245474;28;20154;-79
2022/03/06 02:10:50;;;;;;;10.70;5.35;;;;;;;1.62;93.04;101616.34;5249659;28;20107;-80
2022/03/06 02:13:21;;;;;;;10.65;5.45;;;;;;;1.70;91.93;101607.03;5256798;28;20158;-80
2022/03/06 02:15:52;;;;;;;10.27;5.40;;;;;;;1.79;92.08;101613.19;5254563;28;20111;-79
2022/03/06 02:18:23;;;;;;;11.43;5.72;;;;;;;1.80;92.25;101608.94;5247493;28;20028;-81
2022/03/06 02:20:53;;;;;;;8.90;5.10;;;;;;;1.87;92.11;101603.03;5251672;28;20027;-80
2022/03/06 02:23:24;;;;;;;8.73;5.32;;;;;;;1.70;92.26;101607.03;5253351;28;20031;-79
2022/03/06 02:25:54;;;;;;;12.88;5.35;;;;;;;1.70;92.96;101601.00;5250507;28;20393;-79
2022/03/06 02:28:24;;;;;;;11.82;5.10;;;;;;;1.73;93.42;101601.94;5258468;28;20020;-79
2022/03/06 02:30:55;;;;;;;10.30;5.85;;;;;;;1.69;93.18;101592.41;5242617;28;20368;-79
2022/03/06 02:33:26;;;;;;;10.15;5.20;;;;;;;1.69;93.59;101599.25;5254343;28;20479;-80
2022/03/06 02:35:56;;;;;;;10.77;5.53;;;;;;;1.80;93.35;101602.06;5254100;28;20058;-79
2022/03/06 02:38:26;;;;;;;9.65;5.32;;;;;;;1.93;91.77;101592.78;5253957;28;20078;-79
2022/03/06 02:40:57;;;;;;;10.48;5.50;;;;;;;1.96;91.85;101593.72;5258101;28;20420;-79
2022/03/06 02:43:27;;;;;;;9.02;4.80;;;;;;;2.16;90.12;101601.75;5254499;28;20109;-78
2022/03/06 02:45:57;;;;;;;9.65;5.28;;;;;;;2.09;89.80;101597.34;5257439;28;20473;-79
2022/03/06 02:48:28;;;;;;;10.65;5.15;;;;;;;2.01;89.98;101593.78;5254803;28;20452;-79
2022/03/06 02:50:58;;;;;;;9.63;5.38;;;;;;;2.10;90.18;101601.66;5257985;28;20031;-79
2022/03/06 02:53:28;;;;;;;9.52;5.18;;;;;;;2.00;89.77;101594.66;5255363;28;20028;-79
2022/03/06 02:55:59;;;;;;;9.82;5.18;;;;;;;1.88;90.45;101595.31;5258130;28;20119;-79
2022/03/06 02:58:29;;;;;;;11.57;5.25;;;;;;;2.28;90.07;101591.59;5254546;28;20028;-79
2022/03/06 03:00:59;;;;;;;9.38;4.93;;;;;;;2.17;89.70;101588.03;5247799;28;20058;-79
2022/03/06 03:03:40;;;;;;;9.88;5.28;;;;;;;2.14;89.16;101594.00;5253715;28;20085;-79
2022/03/06 03:06:10;;;;;;;12.48;5.10;;;;;;;2.08;90.06;101590.44;5254757;28;20091;-79
2022/03/06 03:08:41;;;;;;;9.48;4.68;;;;;;;1.90;91.40;101582.44;5255890;28;20043;-79
2022/03/06 03:11:12;;;;;;;10.27;5.07;;;;;;;1.70;91.64;101585.53;5254575;28;20089;-79
2022/03/06 03:13:42;;;;;;;10.70;4.90;;;;;;;1.65;92.03;101585.50;5256671;28;20089;-79
2022/03/06 03:16:13;;;;;;;9.18;4.70;;;;;;;1.55;93.19;101588.75;5253495;28;20037;-78
2022/03/06 03:18:43;;;;;;;9.23;4.97;;;;;;;1.72;92.76;101587.31;5256009;28;20055;-78
2022/03/06 03:21:14;;;;;;;9.23;4.97;;;;;;;1.78;91.76;101590.84;5253386;28;20028;-79
2022/03/06 03:23:44;;;;;;;9.80;5.40;;;;;;;1.93;90.63;101587.63;5245275;28;20054;-79
2022/03/06 03:26:14;;;;;;;11.50;5.18;;;;;;;1.92;90.36;101585.91;5249383;28;20102;-77
2022/03/06 03:28:44;;;;;;;9.80;4.78;;;;;;;1.51;92.90;101580.94;5251206;28;20453;-79
2022/03/06 03:31:15;;;;;;;9.40;4.93;;;;;;;1.83;92.26;101585.78;5242679;28;20111;-77
2022/03/06 03:33:46;;;;;;;9.00;4.60;;;;;;;1.94;91.22;101579.06;5251002;28;20028;-77
2022/03/06 03:36:16;;;;;;;9.40;4.78;;;;;;;2.00;90.67;101579.19;5250356;28;20099;-80
2022/03/06 03:38:46;;;;;;;9.38;4.38;;;;;;;1.91;90.83;101587.63;5256099;28;20036;-80
2022/03/06 03:41:17;;;;;;;10.52;4.55;;;;;;;1.85;92.27;101595.25;5253063;28;20064;-79
2022/03/06 03:43:47;;;;;;;9.63;4.68;;;;;;;1.85;91.31;101592.69;5246904;28;20478;-79
2022/03/06 03:46:18;;;;;;;7.65;4.30;;;;;;;1.57;93.43;101587.06;5246609;28;20449;-79
2022/03/06 03:48:49;;;;;;;8.77;4.78;;;;;;;1.60;93.50;101592.25;5256365;28;20498;-79
2022/03/06 03:51:19;;;;;;;7.88;4.18;;;;;;;1.85;92.50;101589.25;5251155;28;20477;-79
2022/03/06 03:53:49;;;;;;;9.98;4.28;;;;;;;1.75;92.13;101591.66;5256305;28;20405;-79
2022/03/06 03:56:22;;;;;;;7.03;4.45;;;;;;;1.79;92.07;101590.00;5251902;28;20028;-79
2022/03/06 03:58:53;;;;;;;8.60;4.53;;;;;;;1.98;91.77;101589.44;5248880;28;20036;-79
2022/03/06 04:01:23;;;;;;;7.30;4.07;;;;;;;1.71;92.29;101590.72;5248085;28;20493;-79
2022/03/06 04:03:53;;;;;;;10.95;4.68;;;;;;;1.30;94.19;101589.19;5247160;28;20033;-79
2022/03/06 04:06:24;;;;;;;11.98;4.38;;;;;;;1.30;95.19;101589.19;5253506;28;20028;-78
2022/03/06 04:08:54;;;;;;;9.43;4.03;;;;;;;1.47;94.16;101595.50;5256057;28;20488;-79
2022/03/06 04:11:24;;;;;;;9.15;4.60;;;;;;;1.68;93.50;101601.00;5252001;28;20021;-78
2022/03/06 04:13:54;;;;;;;8.00;4.07;;;;;;;1.67;92.07;101598.38;5256000;28;20028;-79
2022/03/06 04:16:25;;;;;;;7.45;3.92;;;;;;;1.36;94.87;101609.00;5250694;28;20390;-79
2022/03/06 04:18:55;;;;;;;9.57;4.63;;;;;;;1.13;95.35;101613.75;5254053;28;20024;-79
2022/03/06 04:21:25;;;;;;;6.85;3.92;;;;;;;1.16;95.39;101608.66;5252171;28;20028;-78
2022/03/06 04:23:56;;;;;;;8.32;4.07;;;;;;;1.18;94.00;101609.53;5254796;28;20024;-79
2022/03/06 04:26:26;;;;;;;8.07;3.97;;;;;;;1.30;94.25;101612.34;5250879;28;20020;-79
2022/03/06 04:28:56;;;;;;;7.95;4.30;;;;;;;1.05;94.32;101617.88;5249202;28;20517;-79
2022/03/06 04:31:27;;;;;;;8.23;4.30;;;;;;;1.03;94.65;101622.13;5242464;28;20503;-79
2022/03/06 04:33:58;;;;;;;7.90;4.25;;;;;;;0.80;96.25;101620.81;5252509;28;20032;-79
2022/03/06 04:36:29;;;;;;;8.07;4.53;;;;;;;0.89;96.04;101630.41;5253378;28;20485;-79
2022/03/06 04:38:59;;;;;;;7.43;4.47;;;;;;;0.96;95.08;101634.84;5255170;28;20028;-79
2022/03/06 04:41:30;;;;;;;10.23;4.47;;;;;;;0.87;94.32;101627.81;5252554;28;20036;-79
2022/03/06 04:44:00;;;;;;;8.15;4.40;;;;;;;0.84;93.79;101634.56;5254363;28;20024;-79
2022/03/06 04:46:31;;;;;;;6.82;4.00;;;;;;;0.80;94.56;101637.94;5251749;28;20410;-78
2022/03/06 04:49:01;;;;;;;8.57;4.30;;;;;;;0.82;94.27;101639.72;5255026;28;20525;-79
2022/03/06 04:51:32;;;;;;;7.47;4.15;;;;;;;0.78;94.09;101640.50;5252732;28;20093;-79
2022/03/06 04:54:02;;;;;;;6.68;3.78;;;;;;;0.74;94.47;101632.69;5254599;28;20196;-78
2022/03/06 04:56:34;;;;;;;10.18;4.50;;;;;;;0.72;94.26;101642.06;5250845;28;20107;-79
2022/03/06 04:59:04;;;;;;;9.48;4.20;;;;;;;0.74;93.23;101643.81;5247229;28;20032;-79
2022/03/06 05:01:35;;;;;;;9.13;4.20;;;;;;;0.78;93.73;101647.31;5243997;28;20025;-79
2022/03/06 05:04:05;;;;;;;7.28;4.00;;;;;;;0.74;92.84;101646.38;5251911;28;20513;-79
2022/03/06 05:06:35;;;;;;;9.10;3.88;;;;;;;0.82;92.29;101639.72;5252086;28;20020;-79
2022/03/06 05:09:06;;;;;;;7.20;4.03;;;;;;;0.71;92.26;101641.19;5252507;28;20107;-79
2022/03/06 05:11:36;;;;;;;6.68;3.70;;;;;;;0.67;93.32;101641.97;5251844;28;20020;-79
2022/03/06 05:14:06;;;;;;;7.68;4.07;;;;;;;0.67;92.53;101647.09;5253545;28;20023;-79
2022/03/06 05:16:37;;;;;;;6.50;3.92;;;;;;;0.78;92.60;101645.63;5253171;28;20080;-79
2022/03/06 05:19:07;;;;;;;8.43;3.70;;;;;;;0.72;91.99;101639.50;5253551;28;20027;-79
2022/03/06 05:21:37;;;;;;;6.65;3.80;;;;;;;0.73;91.49;101638.66;5253021;28;20533;-79
2022/03/06 05:24:08;;;;;;;7.88;3.78;;;;;;;0.90;91.30;101645.00;5251898;28;20044;-79
2022/03/06 05:26:38;;;;;;;9.05;3.92;;;;;;;0.80;91.52;101643.97;5253711;28;20111;-79
2022/03/06 05:29:08;;;;;;;7.68;3.67;;;;;;;0.61;92.34;101641.84;5243026;28;20032;-79
2022/03/06 05:31:39;;;;;;;7.80;3.70;;;;;;;0.84;91.42;101650.00;5251158;28;20019;-79
2022/03/06 05:34:09;;;;;;;6.35;3.50;;;;;;;0.64;91.59;101647.06;5252838;28;20051;-79
2022/03/06 05:36:39;;;;;;;8.38;4.25;;;;;;;0.70;92.77;101649.75;5251588;28;20101;-78
2022/03/06 05:39:09;;;;;;;7.85;4.00;;;;;;;0.76;91.93;101651.56;5252545;28;20094;-78
2022/03/06 05:41:40;;;;;;;8.07;3.85;;;;;;;0.88;92.11;101652.69;5251974;28;20024;-78
2022/03/06 05:44:10;;;;;;;8.88;3.55;;;;;;;0.81;91.07;101655.09;5251335;28;20493;-79
2022/03/06 05:46:40;;;;;;;10.15;3.53;;;;;;;0.82;90.54;101662.88;5247234;28;20032;-79
2022/03/06 05:49:13;;;;;;;8.45;3.50;;;;;;;0.65;91.46;101669.34;5249671;28;20494;-78
2022/03/06 05:51:44;;;;;;;8.32;3.45;;;;;;;0.85;90.55;101655.22;5256057;28;20032;-78
2022/03/06 05:54:15;;;;;;;7.40;3.53;;;;;;;0.94;89.52;101660.56;5256291;28;20028;-78
2022/03/06 05:56:45;;;;;;;7.93;3.47;;;;;;;0.84;90.17;101663.75;5256490;28;20049;-78
2022/03/06 05:59:15;;;;;;;7.10;3.70;;;;;;;0.83;90.83;101659.47;5249432;28;20077;-78
2022/03/06 06:01:45;;;;;;;8.07;3.60;;;;;;;0.90;90.76;101670.75;5252342;28;20030;-79
2022/03/06 06:04:16;;;;;;;7.78;3.65;;;;;;;1.07;90.91;101675.38;5255749;28;20129;-79
2022/03/06 06:06:46;;;;;;;7.50;3.25;;;;;;;1.15;88.14;101660.09;5255344;28;20103;-78
2022/03/06 06:09:16;;;;;;;6.75;2.85;;;;;;;1.11;88.34;101671.16;5255579;28;20028;-79
2022/03/06 06:11:47;;;;;;;6.43;3.00;;;;;;;1.09;89.33;101673.69;5257128;28;20097;-79
2022/03/06 06:14:17;;;;;;;8.13;3.08;;;;;;;1.10;89.43;101677.16;5258695;28;20044;-79
2022/03/06 06:16:47;;;;;;;6.85;3.08;;;;;;;1.33;88.56;101674.19;5254197;28;20024;-78
2022/03/06 06:19:18;;;;;;;7.55;3.08;;;;;;;1.49;87.71;101662.47;5254784;28;20454;-78
2022/03/06 06:21:48;;;;;;;6.72;2.83;;;;;;;1.56;86.83;101664.31;5243981;28;20031;-79
2022/03/06 06:24:18;;;;;;;4.43;2.67;;;;;;;1.28;87.45;101674.94;5246958;28;20032;-79
2022/03/06 06:26:51;;;;;;;7.85;3.15;;;;;;;1.32;89.08;101672.47;5252001;28;20111;-78
2022/03/06 06:29:23;;;;;;;7.78;3.05;;;;;;;1.57;87.30;101669.47;5250239;28;20048;-78
2022/03/06 06:31:53;;;;;;;6.18;2.60;;;;;;;1.27;87.01;101674.06;5248751;28;20016;-79
2022/03/06 06:34:24;;;;;;;6.63;2.60;;;;;;;1.44;86.16;101676.97;5238315;28;20115;-79
2022/03/06 06:36:57;;;;;;;7.97;2.60;;;;;;;1.31;87.66;101691.31;5241369;28;20047;-79
2022/03/06 06:39:28;;;;;;;5.15;2.40;;;;;;;1.12;87.57;101684.09;5254212;28;20667;-78
2022/03/06 06:42:01;;;;;;;4.43;2.42;;;;;;;1.09;85.86;101676.28;5257071;28;20035;-78
2022/03/06 06:44:32;;;;;;;7.13;2.40;;;;;;;0.99;87.20;101676.94;5253465;28;20024;-79
2022/03/06 06:47:03;;;;;;;6.53;2.25;;;;;;;1.24;86.55;101684.31;5253471;28;20081;-79
2022/03/06 06:49:34;;;;;;;6.32;2.45;;;;;;;1.34;86.84;101687.91;5246593;28;20024;-78
2022/03/06 06:52:05;;;;;;;7.65;2.72;;;;;;;1.44;86.17;101684.69;5245646;28;20081;-78
2022/03/06 06:54:35;;;;;;;6.13;2.53;;;;;;;1.74;85.61;101680.09;5242663;28;20024;-78
2022/03/06 06:57:05;;;;;;;4.80;2.33;;;;;;;1.64;85.37;101691.06;5250053;28;20078;-79
2022/03/06 06:59:35;;;;;;;6.03;2.35;;;;;;;1.53;85.51;101687.41;5247521;28;20047;-79
2022/03/06 07:02:06;;;;;;;5.38;2.30;;;;;;;1.33;86.37;101696.47;5242422;28;20052;-79
2022/03/06 07:04:37;;;;;;;5.18;2.20;;;;;;;1.38;86.57;101684.59;5247699;28;20049;-79
2022/03/06 07:07:07;;;;;;;5.82;2.30;;;;;;;1.22;86.66;101696.28;5251033;28;20025;-78
2022/03/06 07:09:37;;;;;;;3.97;2.17;;;;;;;1.25;86.56;101701.47;5252495;28;20474;-78
2022/03/06 07:12:08;;;;;;;6.97;2.63;;;;;;;1.51;85.47;101696.84;5236204;28;20437;-79
2022/03/06 07:14:39;;;;;;;6.32;2.53;;;;;;;1.58;85.72;101685.81;5246922;28;20048;-79
2022/03/06 07:17:09;;;;;;;4.95;2.50;;;;;;;1.48;85.39;101694.19;5242192;28;20501;-78
2022/03/06 07:19:39;;;;;;;4.88;2.17;;;;;;;1.39;85.37;101694.91;5248262;28;20020;-78
2022/03/06 07:22:09;;;;;;;4.78;2.10;;;;;;;1.51;86.61;101694.25;5244919;28;20028;-78
2022/03/06 07:24:39;;;;;;;6.25;2.33;;;;;;;1.66;84.44;101690.28;5248762;28;20506;-78
2022/03/06 07:27:10;;;;;;;7.57;2.33;;;;;;;1.52;84.16;101696.00;5237517;28;20024;-79
2022/03/06 07:29:40;;;;;;;7.13;2.47;;;;;;;1.75;84.82;101698.16;5246221;28;20024;-78
2022/03/06 07:32:10;;;;;;;6.75;2.28;;;;;;;1.78;83.66;101700.78;5242141;28;20013;-79
2022/03/06 07:34:41;;;;;;;6.60;2.40;;;;;;;2.30;83.38;101704.25;5241793;28;20032;-79
2022/03/06 07:37:11;;;;;;;4.55;2.10;;;;;;;2.42;82.45;101704.44;5243383;28;20047;-79
2022/03/06 07:39:41;;;;;;;5.10;2.33;;;;;;;2.50;82.33;101708.00;5251755;28;20024;-79
2022/03/06 07:42:12;;;;;;;6.13;2.25;;;;;;;2.38;81.83;101706.94;5245743;28;20037;-78
2022/03/06 07:44:42;;;;;;;4.97;2.10;;;;;;;2.63;81.09;101709.91;5250996;28;20574;-78
2022/03/06 07:47:12;;;;;;;3.85;1.98;;;;;;;2.49;81.13;101714.00;5250574;28;20126;-78
2022/03/06 07:49:42;;;;;;;8.65;2.20;;;;;;;2.38;81.52;101722.44;5241729;28;20035;-79
2022/03/06 07:52:13;;;;;;;7.97;2.17;;;;;;;2.44;81.53;101722.50;5233775;28;20028;-78
2022/03/06 07:54:43;;;;;;;6.10;2.35;;;;;;;2.39;80.96;101719.00;5240828;28;20024;-78
2022/03/06 07:57:13;;;;;;;4.45;1.90;;;;;;;2.35;80.28;101732.69;5245750;28;20023;-78
2022/03/06 07:59:44;;;;;;;4.47;2.10;;;;;;;2.45;80.37;101731.97;5245533;28;20888;-78
2022/03/06 08:02:14;;;;;;;5.00;2.10;;;;;;;2.27;81.16;101736.84;5239368;28;20815;-79
2022/03/06 08:04:45;;;;;;;4.93;2.05;;;;;;;2.32;80.95;101735.22;5244333;28;20539;-79
2022/03/06 08:07:15;;;;;;;7.53;2.00;;;;;;;1.86;83.62;101737.88;5250614;28;20115;-78
2022/03/06 08:09:45;;;;;;;3.95;1.90;;;;;;;1.52;84.56;101735.50;5254105;28;20023;-78
2022/03/06 08:12:15;;;;;;;4.97;1.95;;;;;;;1.77;85.18;101743.72;5250524;28;20017;-80
2022/03/06 08:14:46;;;;;;;5.93;1.73;;;;;;;1.62;84.73;101741.69;5248541;28;20390;-80
2022/03/06 08:17:17;;;;;;;4.43;1.85;;;;;;;1.83;85.35;101745.53;5231935;28;20024;-80
2022/03/06 08:19:47;;;;;;;8.20;1.88;;;;;;;1.94;83.44;101741.44;5236888;28;20686;-81
2022/03/06 08:22:21;;;;;;;3.40;1.83;;;;;;;1.98;83.68;101750.97;5250079;28;20028;-80
2022/03/06 08:24:53;;;;;;;9.65;2.17;;;;;;;2.04;83.60;101746.81;5247291;28;20020;-79
2022/03/06 08:27:24;;;;;;;4.15;2.13;;;;;;;1.88;84.37;101749.94;5238842;28;20031;-80
2022/03/06 08:29:55;;;;;;;4.10;1.70;;;;;;;1.82;84.13;101754.13;5251933;28;20043;-80
2022/03/06 08:32:25;;;;;;;5.57;1.80;;;;;;;1.59;83.81;101752.78;5264463;28;20028;-80
2022/03/06 08:34:55;;;;;;;6.47;1.98;;;;;;;1.52;85.03;101753.53;5244554;28;20142;-79
2022/03/06 08:37:26;;;;;;;4.40;1.95;;;;;;;1.52;85.13;101750.97;5237600;28;20096;-81
2022/03/06 08:39:56;;;;;;;6.15;1.88;;;;;;;1.54;85.12;101756.16;5241777;28;20031;-80
2022/03/06 08:42:26;;;;;;;6.30;1.92;;;;;;;1.65;84.37;101770.97;5244007;28;20527;-80
2022/03/06 08:44:57;;;;;;;4.65;1.80;;;;;;;1.66;84.24;101767.56;5236174;28;20031;-81
2022/03/06 08:47:27;;;;;;;5.13;2.10;;;;;;;1.79;84.32;101764.38;5247805;28;20038;-80
2022/03/06 08:49:57;;;;;;;5.90;2.03;;;;;;;2.00;84.22;101764.75;5251766;28;20024;-79
2022/03/06 08:52:27;;;;;;;3.10;1.70;;;;;;;1.98;82.54;101766.44;5242369;28;20488;-81
2022/03/06 08:54:58;;;;;;;5.28;2.10;;;;;;;1.64;84.48;101774.38;5243618;28;20020;-80
2022/03/06 08:57:28;;;;;;;4.18;1.83;;;;;;;1.74;82.81;101776.28;5247852;28;20016;-80
2022/03/06 08:59:58;;;;;;;2.90;1.75;;;;;;;1.77;83.50;101776.34;5236171;28;20038;-80
2022/03/06 09:02:29;;;;;;;2.97;1.75;;;;;;;1.68;83.98;101771.03;5257002;28;20035;-81
2022/03/06 09:04:59;;;;;;;5.78;2.55;;;;;;;1.78;83.30;101773.78;5229842;28;20032;-80
2022/03/06 09:07:29;;;;;;;6.28;2.05;;;;;;;1.92;82.23;101771.47;5238823;28;20108;-81
2022/03/06 09:09:59;;;;;;;4.60;1.60;;;;;;;2.07;81.21;101771.75;5251417;28;20020;-81
2022/03/06 09:12:31;;;;;;;4.72;1.67;;;;;;;2.07;80.38;101771.75;5246582;28;20438;-80
2022/03/06 09:15:01;;;;;;;5.05;1.73;;;;;;;1.93;82.57;101774.09;5243924;28;20058;-80
2022/03/06 09:17:31;;;;;;;3.55;1.60;;;;;;;2.11;81.95;101768.38;5242695;28;20036;-80
2022/03/06 09:20:04;;;;;;;4.18;1.52;;;;;;;2.32;79.36;101773.91;5245749;28;20024;-80
2022/03/06 09:22:35;;;;;;;5.10;1.85;;;;;;;2.27;79.04;101770.38;5253156;28;20101;-80
2022/03/06 09:25:06;;;;;;;5.80;1.73;;;;;;;2.55;79.66;101775.16;5262882;28;20016;-80
2022/03/06 09:27:36;;;;;;;5.70;1.73;;;;;;;2.19;79.03;101775.41;5261576;28;20104;-81
2022/03/06 09:30:07;;;;;;;6.57;2.05;;;;;;;2.04;79.76;101784.59;5241831;28;20024;-80
2022/03/06 09:32:39;;;;;;;5.30;1.73;;;;;;;2.18;79.91;101778.81;5237469;28;20111;-81
2022/03/06 09:35:10;;;;;;;2.85;1.75;;;;;;;2.08;79.40;101773.47;5240693;28;20032;-81
2022/03/06 09:37:40;;;;;;;4.07;1.65;;;;;;;2.24;79.47;101780.63;5248118;28;20086;-80
2022/03/06 09:40:11;;;;;;;7.05;2.25;;;;;;;2.31;78.18;101790.25;5247811;28;20032;-81
2022/03/06 09:42:42;;;;;;;5.63;2.08;;;;;;;2.53;78.20;101787.16;5232025;28;20045;-80
2022/03/06 09:45:13;;;;;;;3.38;1.80;;;;;;;2.34;77.58;101787.72;5237597;28;20036;-80
2022/03/06 09:47:45;;;;;;;5.68;1.85;;;;;;;2.24;78.28;101789.25;5244722;28;20052;-80
2022/03/06 09:50:16;;;;;;;3.42;1.58;;;;;;;2.28;80.03;101790.16;5246053;28;20052;-80
2022/03/06 09:52:46;;;;;;;5.88;1.80;;;;;;;2.46;78.35;101795.63;5253087;28;20059;-81
2022/03/06 09:55:16;;;;;;;6.90;2.00;;;;;;;2.81;77.41;101789.31;5248949;28;20056;-81
2022/03/06 09:57:52;;;;;;;4.35;1.40;;;;;;;3.04;75.35;101778.47;5260613;28;20134;-81
2022/03/06 10:00:24;;;;;;;2.92;1.48;;;;;;;2.91;75.99;101783.44;5261778;28;20044;-80
2022/03/06 10:02:59;;;;;;;4.35;1.67;;;;;;;3.08;74.83;101789.72;5248789;28;20101;-82
2022/03/06 10:05:32;;;;;;;4.00;1.55;;;;;;;2.88;73.53;101785.97;5252671;28;20016;-80
2022/03/06 10:08:22;;;;;;;5.40;1.70;;;;;;;2.79;74.70;101784.13;5243059;28;20064;-81
2022/03/06 10:10:58;;;;;;;4.43;1.52;;;;;;;2.26;76.04;101778.94;5250308;28;20024;-81
2022/03/06 10:13:31;;;;;;;6.35;1.70;;;;;;;2.47;75.88;101774.16;5243540;28;20399;-79
2022/03/06 10:16:17;;;;;;;4.63;1.40;;;;;;;2.46;75.03;101775.00;5241096;28;20089;-81
2022/03/06 10:18:56;;;;;;;2.88;1.60;;;;;;;2.80;72.91;101787.56;5246809;28;20178;-81
2022/03/06 10:21:32;;;;;;;2.60;1.40;;;;;;;3.10;70.68;101776.00;5237386;28;20032;-80
2022/03/06 10:24:08;;;;;;;;;;;;;;;3.14;69.98;101771.72;5248000;28;20041;-79
2022/03/06 10:26:38;;;;;;;4.28;1.50;;;;;;;2.85;70.32;101773.88;5236451;28;19905;-80
2022/03/06 10:29:11;;;;;;;4.22;1.60;;;;;;;3.39;69.79;101776.38;5234395;28;20040;-79
2022/03/06 10:31:55;;;;;;;4.68;1.48;;;;;;;3.29;69.90;101777.06;5231065;28;20021;-81
2022/03/06 10:34:40;;;;;;;4.18;1.30;;;;;;;2.79;73.15;101778.97;5223944;28;20045;-81
2022/03/06 10:37:13;;;;;;;2.85;1.20;;;;;;;2.61;73.46;101782.97;5244731;28;20058;-80
2022/03/06 10:39:48;;;;;;;2.38;1.27;;;;;;;2.68;74.96;101780.50;5244561;28;20040;-80
2022/03/06 10:42:22;;;;;;;3.25;1.30;;;;;;;2.73;73.05;101783.16;5244797;28;20579;-82
2022/03/06 10:44:52;;;;;;;2.70;1.40;;;;;;;2.86;72.65;101782.53;5241092;28;20032;-79
2022/03/06 10:47:22;;;;;;;3.53;1.40;;;;;;;3.12;73.11;101773.41;5241902;28;20031;-80
2022/03/06 10:50:05;;;;;;;1.75;1.20;;;;;;;2.38;72.89;101784.31;5243556;28;20036;-80
2022/03/06 10:52:42;;;;;;;3.03;1.60;;;;;;;2.31;73.35;101797.97;5228145;28;20664;-80
2022/03/06 10:55:12;;;;;;;3.55;1.40;;;;;;;2.39;74.80;101791.22;5232140;28;20071;-82
2022/03/06 10:57:55;;;;;;;2.97;1.48;;;;;;;2.38;73.24;101790.38;5244205;28;21771;-80
2022/03/06 11:00:26;;;;;;;3.97;1.58;;;;;;;2.67;72.75;101794.25;5248641;28;20147;-80
2022/03/06 11:03:00;;;;;;;3.05;1.38;;;;;;;2.36;72.39;101791.16;5234788;28;20629;-83
2022/03/06 11:05:32;;;;;;;3.53;1.48;;;;;;;2.23;72.61;101796.97;5243869;28;20043;-80
2022/03/06 11:08:03;;;;;;;5.25;1.40;;;;;;;2.19;71.95;101788.28;5241010;28;20051;-83
2022/03/06 11:10:33;;;;;;;4.40;1.60;;;;;;;2.11;72.28;101783.84;5242838;28;20036;-80
2022/03/06 11:13:05;;;;;;;3.55;1.67;;;;;;;2.42;72.36;101778.38;5247826;28;20218;-79
2022/03/06 11:15:35;;;;;;;4.80;1.58;;;;;;;2.51;70.68;101775.94;5238919;28;20043;-79
2022/03/06 11:18:07;;;;;;;2.25;1.38;;;;;;;2.74;69.92;101779.75;5238807;28;20028;-80
2022/03/06 11:20:40;;;;;;;2.65;1.50;;;;;;;2.92;69.15;101774.84;5237922;28;20036;-81
2022/03/06 11:23:18;;;;;;;2.83;1.40;;;;;;;2.99;68.80;101780.13;5230513;28;20077;-80
2022/03/06 11:26:06;;;;;;;2.50;1.50;;;;;;;2.93;69.49;101781.75;5239003;28;20041;-81
2022/03/06 11:29:04;;;;;;;3.67;1.40;;;;;;;2.99;67.97;101779.28;5233794;28;20031;-79
2022/03/06 11:31:48;;;;;;;4.07;1.65;;;;;;;2.87;69.46;101779.94;5248228;28;20037;-80
2022/03/06 11:34:27;;;;;;;2.47;1.35;;;;;;;2.92;68.88;101772.28;5246160;28;20455;-79
2022/03/06 11:36:58;;;;;;;5.18;1.67;;;;;;;2.71;69.23;101770.22;5242685;28;20036;-78
2022/03/06 11:39:28;;;;;;;4.65;1.50;;;;;;;2.71;67.22;101774.53;5240340;28;20477;-79
2022/03/06 11:42:00;;;;;;;4.47;1.67;;;;;;;2.82;68.09;101778.16;5243634;28;20649;-80
2022/03/06 11:44:38;;;;;;;2.30;1.33;;;;;;;2.84;68.38;101782.47;5233257;28;20275;-78
2022/03/06 11:47:21;;;;;;;1.92;1.35;;;;;;;2.63;67.96;101770.97;5230915;28;20052;-80
2022/03/06 11:49:55;;;;;;;2.17;1.48;;;;;;;2.59;68.44;101774.34;5232971;28;20527;-79
2022/03/06 11:52:30;;;;;;;3.67;1.70;;;;;;;2.55;67.91;101773.44;5236763;28;20043;-79